sensor_id;sensor_type;location;lat;lon;timestamp;pressure;altitude;pressure_sealevel;temperature;humidity
18987;BME280;9627;59.236;18.142;2022-11-03T00:00:56;100868.44;;;6.89;100.00
18987;BME280;9627;59.236;18.142;2022-11-03T00:03:26;100868.75;;;6.86;100.00
18987;BME280;9627;59.236;18.142;2022-11-03T00:05:53;100871.69;;;6.83;100.00
18987;BME280;9627;59.236;18.142;2022-11-03T00:08:36;100859.13;;;6.77;100.00
18987;BME280;9627;59.236;18.142;2022-11-03T00:11:06;100856.47;;;6.69;100.00
18987;BME280;9627;59.236;18.142;2022-11-03T00:13:34;100862.91;;;6.75;100.00
18987;BME280;9627;59.236;18.142;2022-11-03T00:16:01;100870.47;;;6.70;100.00
18987;BME280;9627;59.236;18.142;2022-11-03T00:18:29;100865.06;;;6.79;100.00
18987;BME280;9627;59.236;18.142;2022-11-03T00:20:57;100865.00;;;6.71;100.00
18987;BME280;9627;59.236;18.142;2022-11-03T00:23:26;100858.03;;;6.62;100.00
18987;BME280;9627;59.236;18.142;2022-11-03T00:25:53;100859.72;;;6.63;100.00
18987;BME280;9627;59.236;18.142;2022-11-03T00:28:20;100867.72;;;6.53;100.00
18987;BME280;9627;59.236;18.142;2022-11-03T00:30:47;100865.25;;;6.52;100.00
18987;BME280;9627;59.236;18.142;2022-11-03T00:33:14;100842.22;;;6.36;100.00
18987;BME280;9627;59.236;18.142;2022-11-03T00:35:43;100865.38;;;6.50;100.00
18987;BME280;9627;59.236;18.142;2022-11-03T00:38:10;100870.72;;;6.58;100.00
18987;BME280;9627;59.236;18.142;2022-11-03T00:40:36;100874.75;;;6.71;100.00
18987;BME280;9627;59.236;18.142;2022-11-03T00:43:03;100877.00;;;6.57;100.00
18987;BME280;9627;59.236;18.142;2022-11-03T00:45:30;100877.50;;;6.61;100.00
18987;BME280;9627;59.236;18.142;2022-11-03T00:47:57;100870.31;;;6.45;100.00
18987;BME280;9627;59.236;18.142;2022-11-03T00:50:48;100878.72;;;6.49;100.00
18987;BME280;9627;59.236;18.142;2022-11-03T00:53:15;100875.50;;;6.37;100.00
18987;BME280;9627;59.236;18.142;2022-11-03T00:55:41;100876.38;;;6.20;100.00
18987;BME280;9627;59.236;18.142;2022-11-03T00:58:14;100880.81;;;6.20;100.00
18987;BME280;9627;59.236;18.142;2022-11-03T01:00:41;100873.53;;;6.14;100.00
18987;BME280;9627;59.236;18.142;2022-11-03T01:03:08;100880.28;;;6.16;100.00
18987;BME280;9627;59.236;18.142;2022-11-03T01:05:39;100887.91;;;6.19;100.00
18987;BME280;9627;59.236;18.142;2022-11-03T01:08:24;100886.75;;;6.22;100.00
18987;BME280;9627;59.236;18.142;2022-11-03T01:10:51;100886.81;;;6.30;100.00
18987;BME280;9627;59.236;18.142;2022-11-03T01:13:41;100888.50;;;6.31;100.00
18987;BME280;9627;59.236;18.142;2022-11-03T01:16:08;100897.44;;;6.20;100.00
18987;BME280;9627;59.236;18.142;2022-11-03T01:18:34;100891.75;;;6.07;100.00
18987;BME280;9627;59.236;18.142;2022-11-03T01:21:01;100896.94;;;5.99;100.00
18987;BME280;9627;59.236;18.142;2022-11-03T01:23:30;100894.38;;;5.90;100.00
18987;BME280;9627;59.236;18.142;2022-11-03T01:25:56;100904.94;;;5.80;100.00
18987;BME280;9627;59.236;18.142;2022-11-03T01:28:28;100914.00;;;5.78;100.00
18987;BME280;9627;59.236;18.142;2022-11-03T01:30:55;100912.31;;;5.77;100.00
18987;BME280;9627;59.236;18.142;2022-11-03T01:33:27;100887.63;;;5.60;100.00
18987;BME280;9627;59.236;18.142;2022-11-03T01:35:54;100911.94;;;5.72;100.00
18987;BME280;9627;59.236;18.142;2022-11-03T01:38:21;100914.94;;;5.77;100.00
18987;BME280;9627;59.236;18.142;2022-11-03T01:40:49;100928.56;;;5.72;100.00
18987;BME280;9627;59.236;18.142;2022-11-03T01:43:17;100920.66;;;5.72;100.00
18987;BME280;9627;59.236;18.142;2022-11-03T01:45:46;100917.28;;;5.62;100.00
18987;BME280;9627;59.236;18.142;2022-11-03T01:48:15;100929.59;;;5.61;100.00
18987;BME280;9627;59.236;18.142;2022-11-03T01:50:45;100934.09;;;5.51;100.00
18987;BME280;9627;59.236;18.142;2022-11-03T01:53:13;100938.78;;;5.57;100.00
18987;BME280;9627;59.236;18.142;2022-11-03T01:55:41;100941.78;;;5.62;100.00
18987;BME280;9627;59.236;18.142;2022-11-03T01:58:13;100933.22;;;5.60;100.00
18987;BME280;9627;59.236;18.142;2022-11-03T02:00:45;100927.97;;;5.60;100.00
18987;BME280;9627;59.236;18.142;2022-11-03T02:03:12;100936.44;;;5.54;100.00
18987;BME280;9627;59.236;18.142;2022-11-03T02:05:40;100941.41;;;5.57;100.00
18987;BME280;9627;59.236;18.142;2022-11-03T02:08:12;100938.19;;;5.63;100.00
18987;BME280;9627;59.236;18.142;2022-11-03T02:10:40;100935.84;;;5.60;100.00
18987;BME280;9627;59.236;18.142;2022-11-03T02:13:14;100935.56;;;5.63;100.00
18987;BME280;9627;59.236;18.142;2022-11-03T02:15:42;100937.19;;;5.64;100.00
18987;BME280;9627;59.236;18.142;2022-11-03T02:18:10;100890.53;;;5.39;100.00
18987;BME280;9627;59.236;18.142;2022-11-03T02:20:39;100932.91;;;5.63;100.00
18987;BME280;9627;59.236;18.142;2022-11-03T02:23:21;100938.09;;;5.55;100.00
18987;BME280;9627;59.236;18.142;2022-11-03T02:25:54;100924.59;;;5.41;100.00
18987;BME280;9627;59.236;18.142;2022-11-03T02:28:24;100930.28;;;5.36;100.00
18987;BME280;9627;59.236;18.142;2022-11-03T02:30:58;100911.38;;;5.23;100.00
18987;BME280;9627;59.236;18.142;2022-11-03T02:33:45;100928.22;;;5.30;100.00
18987;BME280;9627;59.236;18.142;2022-11-03T02:36:17;100928.91;;;5.32;100.00
18987;BME280;9627;59.236;18.142;2022-11-03T02:38:52;100939.97;;;5.36;100.00
18987;BME280;9627;59.236;18.142;2022-11-03T02:41:23;100937.06;;;5.39;100.00
18987;BME280;9627;59.236;18.142;2022-11-03T02:43:53;100941.81;;;5.35;100.00
18987;BME280;9627;59.236;18.142;2022-11-03T02:46:23;100936.00;;;5.32;100.00
18987;BME280;9627;59.236;18.142;2022-11-03T02:48:51;100942.53;;;5.28;100.00
18987;BME280;9627;59.236;18.142;2022-11-03T02:51:18;100922.78;;;5.14;100.00
18987;BME280;9627;59.236;18.142;2022-11-03T02:53:54;100918.25;;;4.97;100.00
18987;BME280;9627;59.236;18.142;2022-11-03T02:56:23;100933.91;;;4.99;100.00
18987;BME280;9627;59.236;18.142;2022-11-03T02:58:55;100946.34;;;4.97;100.00
18987;BME280;9627;59.236;18.142;2022-11-03T03:01:27;100939.69;;;5.02;100.00
18987;BME280;9627;59.236;18.142;2022-11-03T03:04:00;100940.06;;;5.17;100.00
18987;BME280;9627;59.236;18.142;2022-11-03T03:06:31;100946.31;;;5.16;100.00
18987;BME280;9627;59.236;18.142;2022-11-03T03:09:01;100941.19;;;5.14;100.00
18987;BME280;9627;59.236;18.142;2022-11-03T03:11:32;100947.31;;;5.05;100.00
18987;BME280;9627;59.236;18.142;2022-11-03T03:14:05;100952.28;;;5.08;100.00
18987;BME280;9627;59.236;18.142;2022-11-03T03:16:39;100952.44;;;5.07;100.00
18987;BME280;9627;59.236;18.142;2022-11-03T03:19:20;100950.38;;;5.01;100.00
18987;BME280;9627;59.236;18.142;2022-11-03T03:21:51;100961.81;;;5.09;100.00
18987;BME280;9627;59.236;18.142;2022-11-03T03:24:26;100959.22;;;5.00;100.00
18987;BME280;9627;59.236;18.142;2022-11-03T03:27:00;100965.91;;;4.85;100.00
18987;BME280;9627;59.236;18.142;2022-11-03T03:29:33;100966.06;;;4.83;100.00
18987;BME280;9627;59.236;18.142;2022-11-03T03:32:06;100973.13;;;4.73;100.00
18987;BME280;9627;59.236;18.142;2022-11-03T03:34:37;100967.47;;;4.68;100.00
18987;BME280;9627;59.236;18.142;2022-11-03T03:37:06;100975.50;;;4.66;100.00
18987;BME280;9627;59.236;18.142;2022-11-03T03:39:37;100971.34;;;4.64;100.00
18987;BME280;9627;59.236;18.142;2022-11-03T03:42:09;100952.69;;;4.57;100.00
18987;BME280;9627;59.236;18.142;2022-11-03T03:44:38;100973.00;;;4.75;100.00
18987;BME280;9627;59.236;18.142;2022-11-03T03:47:10;100976.19;;;4.68;100.00
18987;BME280;9627;59.236;18.142;2022-11-03T03:49:39;100972.44;;;4.71;100.00
18987;BME280;9627;59.236;18.142;2022-11-03T03:52:06;100969.06;;;4.98;100.00
18987;BME280;9627;59.236;18.142;2022-11-03T03:54:34;100980.66;;;5.14;100.00
18987;BME280;9627;59.236;18.142;2022-11-03T03:57:03;100978.81;;;5.24;100.00
18987;BME280;9627;59.236;18.142;2022-11-03T03:59:32;100986.41;;;5.37;100.00
18987;BME280;9627;59.236;18.142;2022-11-03T04:02:00;100981.41;;;5.34;100.00
18987;BME280;9627;59.236;18.142;2022-11-03T04:04:27;100981.56;;;5.32;100.00
18987;BME280;9627;59.236;18.142;2022-11-03T04:06:54;100982.81;;;5.28;100.00
18987;BME280;9627;59.236;18.142;2022-11-03T04:09:34;100982.16;;;5.17;100.00
18987;BME280;9627;59.236;18.142;2022-11-03T04:12:01;100979.69;;;5.06;100.00
18987;BME280;9627;59.236;18.142;2022-11-03T04:14:47;100981.91;;;5.10;100.00
18987;BME280;9627;59.236;18.142;2022-11-03T04:17:31;100982.34;;;4.96;100.00
18987;BME280;9627;59.236;18.142;2022-11-03T04:20:16;100990.41;;;4.95;100.00
18987;BME280;9627;59.236;18.142;2022-11-03T04:23:01;100994.97;;;4.93;100.00
18987;BME280;9627;59.236;18.142;2022-11-03T04:25:27;100994.72;;;4.96;100.00
18987;BME280;9627;59.236;18.142;2022-11-03T04:27:54;100998.13;;;4.96;100.00
18987;BME280;9627;59.236;18.142;2022-11-03T04:30:24;100998.84;;;4.98;100.00
18987;BME280;9627;59.236;18.142;2022-11-03T04:32:51;100996.34;;;5.06;100.00
18987;BME280;9627;59.236;18.142;2022-11-03T04:35:21;100998.66;;;5.09;100.00
18987;BME280;9627;59.236;18.142;2022-11-03T04:37:50;100992.84;;;5.06;100.00
18987;BME280;9627;59.236;18.142;2022-11-03T04:40:19;100998.13;;;5.06;100.00
18987;BME280;9627;59.236;18.142;2022-11-03T04:42:46;101001.19;;;5.01;100.00
18987;BME280;9627;59.236;18.142;2022-11-03T04:45:25;101003.00;;;4.91;100.00
18987;BME280;9627;59.236;18.142;2022-11-03T04:47:54;101000.25;;;4.83;100.00
18987;BME280;9627;59.236;18.142;2022-11-03T04:50:22;101006.19;;;4.85;100.00
18987;BME280;9627;59.236;18.142;2022-11-03T04:52:53;101004.97;;;4.80;100.00
18987;BME280;9627;59.236;18.142;2022-11-03T04:55:21;100998.63;;;4.72;100.00
18987;BME280;9627;59.236;18.142;2022-11-03T04:57:49;101012.00;;;4.79;100.00
18987;BME280;9627;59.236;18.142;2022-11-03T05:00:19;101007.03;;;4.76;100.00
18987;BME280;9627;59.236;18.142;2022-11-03T05:02:49;101004.81;;;4.71;100.00
18987;BME280;9627;59.236;18.142;2022-11-03T05:05:17;101009.94;;;4.63;100.00
18987;BME280;9627;59.236;18.142;2022-11-03T05:07:46;101006.50;;;4.63;100.00
18987;BME280;9627;59.236;18.142;2022-11-03T05:10:16;100990.31;;;4.39;100.00
18987;BME280;9627;59.236;18.142;2022-11-03T05:12:43;101007.47;;;4.52;100.00
18987;BME280;9627;59.236;18.142;2022-11-03T05:15:28;101011.22;;;4.50;100.00
18987;BME280;9627;59.236;18.142;2022-11-03T05:17:59;101006.34;;;4.36;100.00
18987;BME280;9627;59.236;18.142;2022-11-03T05:20:30;101005.94;;;4.31;100.00
18987;BME280;9627;59.236;18.142;2022-11-03T05:22:58;100977.00;;;4.02;100.00
18987;BME280;9627;59.236;18.142;2022-11-03T05:25:35;101013.16;;;4.38;100.00
18987;BME280;9627;59.236;18.142;2022-11-03T05:28:10;101021.97;;;4.28;100.00
18987;BME280;9627;59.236;18.142;2022-11-03T05:30:39;101021.28;;;4.26;100.00
18987;BME280;9627;59.236;18.142;2022-11-03T05:33:17;101014.63;;;4.31;100.00
18987;BME280;9627;59.236;18.142;2022-11-03T05:35:44;101021.84;;;4.39;100.00
18987;BME280;9627;59.236;18.142;2022-11-03T05:38:14;101019.66;;;4.44;100.00
18987;BME280;9627;59.236;18.142;2022-11-03T05:40:42;101014.66;;;4.41;100.00
18987;BME280;9627;59.236;18.142;2022-11-03T05:43:12;101033.59;;;4.54;100.00
18987;BME280;9627;59.236;18.142;2022-11-03T05:45:40;101025.31;;;4.49;100.00
18987;BME280;9627;59.236;18.142;2022-11-03T05:48:15;101045.25;;;4.61;100.00
18987;BME280;9627;59.236;18.142;2022-11-03T05:50:43;101037.50;;;4.59;100.00
18987;BME280;9627;59.236;18.142;2022-11-03T05:53:34;101045.94;;;4.44;100.00
18987;BME280;9627;59.236;18.142;2022-11-03T05:56:05;101050.63;;;4.31;100.00
18987;BME280;9627;59.236;18.142;2022-11-03T05:58:35;101050.44;;;4.13;100.00
18987;BME280;9627;59.236;18.142;2022-11-03T06:01:09;101040.63;;;4.06;100.00
18987;BME280;9627;59.236;18.142;2022-11-03T06:03:38;101015.25;;;3.86;100.00
18987;BME280;9627;59.236;18.142;2022-11-03T06:06:13;101056.22;;;3.98;100.00
18987;BME280;9627;59.236;18.142;2022-11-03T06:08:41;101057.16;;;3.97;100.00
18987;BME280;9627;59.236;18.142;2022-11-03T06:11:09;101052.00;;;3.86;100.00
18987;BME280;9627;59.236;18.142;2022-11-03T06:13:40;101053.38;;;3.80;100.00
18987;BME280;9627;59.236;18.142;2022-11-03T06:16:30;101039.38;;;3.70;100.00
18987;BME280;9627;59.236;18.142;2022-11-03T06:19:00;101049.38;;;3.86;100.00
18987;BME280;9627;59.236;18.142;2022-11-03T06:21:31;101053.59;;;3.98;100.00
18987;BME280;9627;59.236;18.142;2022-11-03T06:23:58;101057.50;;;4.13;100.00
18987;BME280;9627;59.236;18.142;2022-11-03T06:26:26;101065.72;;;4.38;100.00
18987;BME280;9627;59.236;18.142;2022-11-03T06:28:54;101068.34;;;4.48;100.00
18987;BME280;9627;59.236;18.142;2022-11-03T06:31:25;101071.53;;;4.51;100.00
18987;BME280;9627;59.236;18.142;2022-11-03T06:33:54;101074.16;;;4.42;100.00
18987;BME280;9627;59.236;18.142;2022-11-03T06:36:25;101073.59;;;4.29;100.00
18987;BME280;9627;59.236;18.142;2022-11-03T06:38:54;101073.19;;;4.43;100.00
18987;BME280;9627;59.236;18.142;2022-11-03T06:41:23;101081.78;;;4.73;100.00
18987;BME280;9627;59.236;18.142;2022-11-03T06:43:51;101086.34;;;5.10;100.00
18987;BME280;9627;59.236;18.142;2022-11-03T06:46:19;101083.63;;;5.48;100.00
18987;BME280;9627;59.236;18.142;2022-11-03T06:48:47;101082.69;;;5.86;100.00
18987;BME280;9627;59.236;18.142;2022-11-03T06:51:15;101083.41;;;6.15;100.00
18987;BME280;9627;59.236;18.142;2022-11-03T06:53:46;101085.56;;;6.46;100.00
18987;BME280;9627;59.236;18.142;2022-11-03T06:56:15;101062.94;;;6.26;100.00
18987;BME280;9627;59.236;18.142;2022-11-03T06:58:44;101091.75;;;6.90;100.00
18987;BME280;9627;59.236;18.142;2022-11-03T07:01:15;101094.38;;;7.08;100.00
18987;BME280;9627;59.236;18.142;2022-11-03T07:03:45;101079.97;;;7.45;100.00
18987;BME280;9627;59.236;18.142;2022-11-03T07:06:14;101098.03;;;7.84;100.00
18987;BME280;9627;59.236;18.142;2022-11-03T07:08:47;101098.69;;;7.86;100.00
18987;BME280;9627;59.236;18.142;2022-11-03T07:11:18;101093.47;;;7.94;100.00
18987;BME280;9627;59.236;18.142;2022-11-03T07:13:45;101094.94;;;7.88;100.00
18987;BME280;9627;59.236;18.142;2022-11-03T07:16:17;101099.94;;;8.33;100.00
18987;BME280;9627;59.236;18.142;2022-11-03T07:18:45;101078.78;;;8.33;100.00
18987;BME280;9627;59.236;18.142;2022-11-03T07:21:30;101116.25;;;8.78;100.00
18987;BME280;9627;59.236;18.142;2022-11-03T07:24:02;101112.59;;;8.63;100.00
18987;BME280;9627;59.236;18.142;2022-11-03T07:26:31;101119.56;;;8.72;100.00
18987;BME280;9627;59.236;18.142;2022-11-03T07:28:59;101123.91;;;9.05;100.00
18987;BME280;9627;59.236;18.142;2022-11-03T07:31:27;101124.41;;;9.17;100.00
18987;BME280;9627;59.236;18.142;2022-11-03T07:33:57;101133.63;;;9.61;100.00
18987;BME280;9627;59.236;18.142;2022-11-03T07:36:26;101117.22;;;9.82;100.00
18987;BME280;9627;59.236;18.142;2022-11-03T07:38:55;101131.56;;;10.03;100.00
18987;BME280;9627;59.236;18.142;2022-11-03T07:41:26;101135.97;;;10.66;100.00
18987;BME280;9627;59.236;18.142;2022-11-03T07:43:55;101138.94;;;10.32;100.00
18987;BME280;9627;59.236;18.142;2022-11-03T07:46:23;101121.44;;;10.07;100.00
18987;BME280;9627;59.236;18.142;2022-11-03T07:48:52;101120.53;;;10.69;100.00
18987;BME280;9627;59.236;18.142;2022-11-03T07:51:23;101133.09;;;10.75;100.00
18987;BME280;9627;59.236;18.142;2022-11-03T07:53:52;101130.97;;;11.16;100.00
18987;BME280;9627;59.236;18.142;2022-11-03T07:56:21;101134.03;;;11.65;100.00
18987;BME280;9627;59.236;18.142;2022-11-03T07:58:53;101128.44;;;11.60;100.00
18987;BME280;9627;59.236;18.142;2022-11-03T08:01:26;101127.84;;;12.31;100.00
18987;BME280;9627;59.236;18.142;2022-11-03T08:03:56;101130.06;;;12.27;100.00
18987;BME280;9627;59.236;18.142;2022-11-03T08:06:24;101124.34;;;12.80;100.00
18987;BME280;9627;59.236;18.142;2022-11-03T08:08:51;101134.44;;;12.35;100.00
18987;BME280;9627;59.236;18.142;2022-11-03T08:11:18;101138.50;;;12.16;100.00
18987;BME280;9627;59.236;18.142;2022-11-03T08:13:47;101128.22;;;11.98;100.00
18987;BME280;9627;59.236;18.142;2022-11-03T08:16:15;101132.53;;;12.79;100.00
18987;BME280;9627;59.236;18.142;2022-11-03T08:18:42;101118.59;;;12.62;100.00
18987;BME280;9627;59.236;18.142;2022-11-03T08:21:09;101131.63;;;13.08;100.00
18987;BME280;9627;59.236;18.142;2022-11-03T08:23:37;101140.47;;;12.58;100.00
18987;BME280;9627;59.236;18.142;2022-11-03T08:26:04;101122.03;;;12.56;100.00
18987;BME280;9627;59.236;18.142;2022-11-03T08:28:32;101134.72;;;12.96;100.00
18987;BME280;9627;59.236;18.142;2022-11-03T08:30:59;101136.88;;;13.22;100.00
18987;BME280;9627;59.236;18.142;2022-11-03T08:33:31;101135.91;;;13.09;100.00
18987;BME280;9627;59.236;18.142;2022-11-03T08:35:59;101132.81;;;13.54;100.00
18987;BME280;9627;59.236;18.142;2022-11-03T08:38:26;101116.44;;;13.57;100.00
18987;BME280;9627;59.236;18.142;2022-11-03T08:40:54;101112.00;;;13.98;100.00
18987;BME280;9627;59.236;18.142;2022-11-03T08:43:22;101115.28;;;14.28;100.00
18987;BME280;9627;59.236;18.142;2022-11-03T08:45:50;101091.16;;;13.80;100.00
18987;BME280;9627;59.236;18.142;2022-11-03T08:48:19;101131.72;;;14.38;100.00
18987;BME280;9627;59.236;18.142;2022-11-03T08:50:47;101112.31;;;14.16;100.00
18987;BME280;9627;59.236;18.142;2022-11-03T08:53:15;101110.09;;;13.92;100.00
18987;BME280;9627;59.236;18.142;2022-11-03T08:55:42;101118.91;;;13.31;100.00
18987;BME280;9627;59.236;18.142;2022-11-03T08:58:08;101120.13;;;13.56;100.00
18987;BME280;9627;59.236;18.142;2022-11-03T09:00:35;101123.22;;;13.32;100.00
18987;BME280;9627;59.236;18.142;2022-11-03T09:03:02;101122.38;;;13.31;100.00
18987;BME280;9627;59.236;18.142;2022-11-03T09:05:29;101121.06;;;12.99;100.00
18987;BME280;9627;59.236;18.142;2022-11-03T09:07:57;101118.16;;;13.64;100.00
18987;BME280;9627;59.236;18.142;2022-11-03T09:10:25;101094.84;;;14.14;100.00
18987;BME280;9627;59.236;18.142;2022-11-03T09:12:52;101118.22;;;14.05;100.00
18987;BME280;9627;59.236;18.142;2022-11-03T09:15:19;101111.53;;;14.22;100.00
18987;BME280;9627;59.236;18.142;2022-11-03T09:17:46;101122.41;;;14.68;100.00
18987;BME280;9627;59.236;18.142;2022-11-03T09:20:13;101127.72;;;13.86;100.00
18987;BME280;9627;59.236;18.142;2022-11-03T09:22:40;101128.00;;;13.64;100.00
18987;BME280;9627;59.236;18.142;2022-11-03T09:25:09;101099.69;;;13.97;100.00
18987;BME280;9627;59.236;18.142;2022-11-03T09:27:36;101124.75;;;14.43;100.00
18987;BME280;9627;59.236;18.142;2022-11-03T09:30:03;101125.59;;;14.37;100.00
18987;BME280;9627;59.236;18.142;2022-11-03T09:32:31;101127.84;;;14.34;100.00
18987;BME280;9627;59.236;18.142;2022-11-03T09:34:58;101133.06;;;13.86;100.00
18987;BME280;9627;59.236;18.142;2022-11-03T09:37:25;101129.84;;;13.42;100.00
18987;BME280;9627;59.236;18.142;2022-11-03T09:39:52;101127.84;;;13.72;100.00
18987;BME280;9627;59.236;18.142;2022-11-03T09:42:21;101130.84;;;13.62;100.00
18987;BME280;9627;59.236;18.142;2022-11-03T09:44:48;101131.63;;;13.56;100.00
18987;BME280;9627;59.236;18.142;2022-11-03T09:47:19;101116.66;;;13.55;100.00
18987;BME280;9627;59.236;18.142;2022-11-03T09:49:48;101115.53;;;13.43;100.00
18987;BME280;9627;59.236;18.142;2022-11-03T09:52:19;101122.09;;;14.09;100.00
18987;BME280;9627;59.236;18.142;2022-11-03T09:54:46;101117.19;;;13.72;100.00
18987;BME280;9627;59.236;18.142;2022-11-03T09:57:15;101135.75;;;13.59;100.00
18987;BME280;9627;59.236;18.142;2022-11-03T09:59:47;101126.78;;;13.66;100.00
18987;BME280;9627;59.236;18.142;2022-11-03T10:02:19;101136.69;;;14.07;100.00
18987;BME280;9627;59.236;18.142;2022-11-03T10:04:47;101133.41;;;14.39;100.00
18987;BME280;9627;59.236;18.142;2022-11-03T10:07:14;101130.69;;;13.98;100.00
18987;BME280;9627;59.236;18.142;2022-11-03T10:09:43;101139.03;;;14.23;100.00
18987;BME280;9627;59.236;18.142;2022-11-03T10:12:11;101135.09;;;14.19;100.00
18987;BME280;9627;59.236;18.142;2022-11-03T10:14:38;101135.25;;;13.49;100.00
18987;BME280;9627;59.236;18.142;2022-11-03T10:17:09;101126.28;;;13.29;100.00
18987;BME280;9627;59.236;18.142;2022-11-03T10:19:39;101135.22;;;13.00;100.00
18987;BME280;9627;59.236;18.142;2022-11-03T10:22:06;101138.41;;;12.74;100.00
18987;BME280;9627;59.236;18.142;2022-11-03T10:24:33;101142.47;;;12.91;100.00
18987;BME280;9627;59.236;18.142;2022-11-03T10:27:00;101124.22;;;12.53;100.00
18987;BME280;9627;59.236;18.142;2022-11-03T10:29:27;101127.38;;;12.27;100.00
18987;BME280;9627;59.236;18.142;2022-11-03T10:31:55;101124.50;;;12.43;100.00
18987;BME280;9627;59.236;18.142;2022-11-03T10:34:32;101128.38;;;12.41;100.00
18987;BME280;9627;59.236;18.142;2022-11-03T10:37:10;101122.81;;;12.71;100.00
18987;BME280;9627;59.236;18.142;2022-11-03T10:39:41;101122.41;;;12.24;100.00
18987;BME280;9627;59.236;18.142;2022-11-03T10:42:16;101109.59;;;11.69;100.00
18987;BME280;9627;59.236;18.142;2022-11-03T10:44:43;101087.13;;;11.86;100.00
18987;BME280;9627;59.236;18.142;2022-11-03T10:47:22;101117.66;;;12.05;100.00
18987;BME280;9627;59.236;18.142;2022-11-03T10:49:51;101113.72;;;11.86;100.00
18987;BME280;9627;59.236;18.142;2022-11-03T10:52:22;101115.44;;;11.28;100.00
18987;BME280;9627;59.236;18.142;2022-11-03T10:54:51;101104.41;;;10.93;100.00
18987;BME280;9627;59.236;18.142;2022-11-03T10:57:18;101112.31;;;11.24;100.00
18987;BME280;9627;59.236;18.142;2022-11-03T10:59:48;101124.03;;;10.92;100.00
18987;BME280;9627;59.236;18.142;2022-11-03T11:02:17;101115.97;;;11.23;100.00
18987;BME280;9627;59.236;18.142;2022-11-03T11:04:46;101103.81;;;11.29;100.00
18987;BME280;9627;59.236;18.142;2022-11-03T11:07:21;101102.09;;;11.50;100.00
18987;BME280;9627;59.236;18.142;2022-11-03T11:09:50;101103.19;;;11.41;100.00
18987;BME280;9627;59.236;18.142;2022-11-03T11:12:20;101105.19;;;11.02;100.00
18987;BME280;9627;59.236;18.142;2022-11-03T11:14:55;101113.94;;;11.25;100.00
18987;BME280;9627;59.236;18.142;2022-11-03T11:17:42;101113.09;;;11.47;100.00
18987;BME280;9627;59.236;18.142;2022-11-03T11:20:28;101105.88;;;11.56;100.00
18987;BME280;9627;59.236;18.142;2022-11-03T11:26:30;101094.66;;;11.08;100.00
18987;BME280;9627;59.236;18.142;2022-11-03T11:41:01;101088.38;;;11.09;100.00
18987;BME280;9627;59.236;18.142;2022-11-03T11:43:28;101074.59;;;11.58;100.00
18987;BME280;9627;59.236;18.142;2022-11-03T11:49:16;101074.72;;;11.27;100.00
18987;BME280;9627;59.236;18.142;2022-11-03T11:51:43;101075.50;;;11.36;100.00
18987;BME280;9627;59.236;18.142;2022-11-03T11:54:12;101068.44;;;11.43;100.00
18987;BME280;9627;59.236;18.142;2022-11-03T11:56:44;101071.69;;;11.15;100.00
18987;BME280;9627;59.236;18.142;2022-11-03T11:59:18;101063.97;;;10.83;100.00
18987;BME280;9627;59.236;18.142;2022-11-03T12:01:48;101070.25;;;11.28;100.00
18987;BME280;9627;59.236;18.142;2022-11-03T12:04:19;101069.66;;;11.17;100.00
18987;BME280;9627;59.236;18.142;2022-11-03T12:06:48;101062.34;;;10.82;100.00
18987;BME280;9627;59.236;18.142;2022-11-03T12:09:17;101067.19;;;10.56;100.00
18987;BME280;9627;59.236;18.142;2022-11-03T12:11:47;101065.44;;;10.41;100.00
18987;BME280;9627;59.236;18.142;2022-11-03T12:14:33;101065.88;;;10.21;100.00
18987;BME280;9627;59.236;18.142;2022-11-03T12:22:10;101057.38;;;10.26;nan
18987;BME280;9627;59.236;18.142;2022-11-03T12:24:48;101053.84;;;10.34;nan
18987;BME280;9627;59.236;18.142;2022-11-03T12:27:38;101057.94;;;10.13;nan
18987;BME280;9627;59.236;18.142;2022-11-03T12:30:11;101049.09;;;10.29;nan
18987;BME280;9627;59.236;18.142;2022-11-03T12:32:39;101056.34;;;10.35;nan
18987;BME280;9627;59.236;18.142;2022-11-03T12:35:07;101054.13;;;10.08;nan
18987;BME280;9627;59.236;18.142;2022-11-03T12:37:34;101061.06;;;10.17;nan
18987;BME280;9627;59.236;18.142;2022-11-03T12:40:01;101050.63;;;10.23;nan
18987;BME280;9627;59.236;18.142;2022-11-03T12:42:30;101056.22;;;10.28;nan
18987;BME280;9627;59.236;18.142;2022-11-03T12:44:57;101057.25;;;10.19;nan
18987;BME280;9627;59.236;18.142;2022-11-03T12:47:24;101044.03;;;10.11;nan
18987;BME280;9627;59.236;18.142;2022-11-03T12:49:50;101052.16;;;10.10;nan
18987;BME280;9627;59.236;18.142;2022-11-03T12:52:17;101050.81;;;10.06;nan
18987;BME280;9627;59.236;18.142;2022-11-03T12:54:44;101048.38;;;9.96;nan
18987;BME280;9627;59.236;18.142;2022-11-03T12:57:11;101058.22;;;9.80;nan
18987;BME280;9627;59.236;18.142;2022-11-03T12:59:39;101053.59;;;9.82;nan
18987;BME280;9627;59.236;18.142;2022-11-03T13:02:07;101040.53;;;9.72;nan
18987;BME280;9627;59.236;18.142;2022-11-03T13:04:35;101052.97;;;9.56;nan
18987;BME280;9627;59.236;18.142;2022-11-03T13:07:02;101048.69;;;9.63;nan
18987;BME280;9627;59.236;18.142;2022-11-03T13:09:29;101041.38;;;9.65;nan
18987;BME280;9627;59.236;18.142;2022-11-03T13:11:56;101027.50;;;9.55;nan
18987;BME280;9627;59.236;18.142;2022-11-03T13:14:41;101039.59;;;9.49;nan
18987;BME280;9627;59.236;18.142;2022-11-03T13:17:08;101047.25;;;9.36;nan
18987;BME280;9627;59.236;18.142;2022-11-03T13:19:35;101041.13;;;9.35;nan
18987;BME280;9627;59.236;18.142;2022-11-03T13:22:02;101026.91;;;9.12;nan
18987;BME280;9627;59.236;18.142;2022-11-03T13:24:29;101044.59;;;9.28;nan
18987;BME280;9627;59.236;18.142;2022-11-03T13:26:56;101046.59;;;9.10;nan